»·PEaware :: N522PM KPDX-KEUG

N522PM :: KPDX-KEUG

FLIGHT INFORMATION

Flight Status: Arrived
Operator: Privately registered:
United States
More flights under this callsign
Pilot: Bruce B. (6887)
Aircraft: BEECH AIRCRAFT BONANZA
(BE36)
More flights by this aircraft type
Origin: KPDX Portland Intl
United States
Destination: KEUG Mahlon Sweet
United States
More flights between these airports :: More routes between these airports
Route: +PTLD1 OSWEG V23 EUG
File this flight plan on PilotEdge
Remarks:
Altitude:
(Current/Filed)
7,000ft
Speed:
(Current/Filed)
160kts
Departed: 06-Jan-19 01:33 PM
Arrived: 06-Jan-19 02:18 PM
Distance/Time
Traveled:
91nm/0:45
Distance/Time
To Go:
Arrived

Flight Plot

Page will automatically refresh every two minutes.

Flight plan parsing failed; only flown route is shown


Map Options




Map Legend


Flown Route
Filed Route
Departure Airport
Arrival Airport
Navaid (VOR, NDB)
Fix

Horizontal Profiles

Position Reports

Time Latitude Longitude Heading Altitude Ground
Speed
06-Jan-19 13:02 45.587436 -122.584262 209 22ft 0kts
06-Jan-19 13:02 45.587435 -122.584262 209 22ft 0kts
06-Jan-19 13:03 45.587434 -122.584263 209 22ft 0kts
06-Jan-19 13:04 45.587433 -122.584264 209 22ft 0kts
06-Jan-19 13:05 45.587432 -122.584265 209 22ft 0kts
06-Jan-19 13:07 45.587431 -122.584266 209 22ft 0kts
06-Jan-19 13:08 45.587430 -122.584267 209 22ft 0kts
06-Jan-19 13:08 45.587429 -122.584267 209 22ft 0kts
06-Jan-19 13:09 45.587428 -122.584268 209 22ft 0kts
06-Jan-19 13:10 45.587427 -122.584269 209 22ft 0kts
06-Jan-19 13:11 45.587426 -122.584270 209 22ft 0kts
06-Jan-19 13:12 45.587425 -122.584271 209 22ft 0kts
06-Jan-19 13:13 45.587424 -122.584271 209 22ft 0kts
06-Jan-19 13:14 45.587423 -122.584272 209 22ft 0kts
06-Jan-19 13:15 45.587422 -122.584273 209 22ft 0kts
06-Jan-19 13:16 45.587421 -122.584274 209 22ft 0kts
06-Jan-19 13:17 45.587420 -122.584275 209 22ft 0kts
06-Jan-19 13:18 45.587419 -122.584275 209 22ft 0kts
06-Jan-19 13:19 45.587418 -122.584276 209 22ft 0kts
06-Jan-19 13:20 45.587417 -122.584277 209 22ft 0kts
06-Jan-19 13:21 45.587416 -122.584278 209 22ft 0kts
06-Jan-19 13:22 45.587415 -122.584279 209 22ft 0kts
06-Jan-19 13:23 45.587414 -122.584279 209 22ft 0kts
06-Jan-19 13:24 45.587413 -122.584280 209 22ft 0kts
06-Jan-19 13:25 45.587412 -122.584281 209 22ft 0kts
06-Jan-19 13:26 45.587919 -122.583803 245 22ft 2kts
06-Jan-19 13:27 45.590001 -122.589097 298 22ft 32kts
06-Jan-19 13:28 45.592370 -122.595271 299 22ft 20kts
06-Jan-19 13:29 45.594003 -122.598298 315 22ft 18kts
06-Jan-19 13:30 45.595655 -122.601415 341 22ft 0kts
06-Jan-19 13:31 45.596437 -122.599177 116 22ft 22kts
06-Jan-19 13:32 45.589760 -122.582412 117 237ft 109kts
06-Jan-19 13:33 45.573944 -122.538224 113 1356ft 130kts
06-Jan-19 13:34 45.558976 -122.488704 122 2298ft 145kts
06-Jan-19 13:35 45.526908 -122.494689 242 2964ft 143kts
06-Jan-19 13:36 45.505216 -122.546551 234 2977ft 157kts
06-Jan-19 13:37 45.480616 -122.598520 234 2974ft 158kts
06-Jan-19 13:38 45.456090 -122.650188 234 2969ft 155kts
06-Jan-19 13:39 45.431937 -122.701017 234 2971ft 155kts
06-Jan-19 13:40 45.396791 -122.730537 196 2982ft 153kts
06-Jan-19 13:41 45.356290 -122.746664 196 3587ft 141kts
06-Jan-19 13:42 45.320145 -122.761058 196 4523ft 131kts
06-Jan-19 13:43 45.286323 -122.774378 198 5342ft 119kts
06-Jan-19 13:44 45.256328 -122.786075 197 5941ft 102kts
06-Jan-19 13:45 45.231404 -122.795687 198 6373ft 95kts
06-Jan-19 13:46 45.203549 -122.806748 198 6993ft 119kts
06-Jan-19 13:47 45.166634 -122.821345 198 6974ft 148kts
06-Jan-19 13:48 45.126098 -122.837168 198 6967ft 152kts
06-Jan-19 13:49 45.085061 -122.853173 198 6965ft 152kts
06-Jan-19 13:50 45.044107 -122.869125 198 6963ft 152kts
06-Jan-19 13:51 45.003318 -122.884991 198 6962ft 152kts
06-Jan-19 13:52 44.962692 -122.900802 198 6957ft 150kts
06-Jan-19 13:53 44.922438 -122.916422 199 6965ft 151kts
06-Jan-19 13:54 44.882421 -122.934794 201 6959ft 151kts
06-Jan-19 13:55 44.842608 -122.953091 200 6955ft 148kts
06-Jan-19 13:56 44.802212 -122.967324 197 6978ft 150kts
06-Jan-19 13:57 44.762129 -122.981061 196 6953ft 144kts
06-Jan-19 13:58 44.722401 -122.995048 197 6970ft 148kts
06-Jan-19 13:59 44.681927 -123.009517 197 6408ft 149kts
06-Jan-19 14:00 44.642032 -123.023894 197 5746ft 145kts
06-Jan-19 14:01 44.603455 -123.038053 197 5090ft 145kts
06-Jan-19 14:02 44.565907 -123.051842 197 4975ft 131kts
06-Jan-19 14:03 44.532505 -123.063497 197 4979ft 119kts
06-Jan-19 14:04 44.503166 -123.073284 197 4914ft 92kts
06-Jan-19 14:05 44.479214 -123.080720 196 5040ft 96kts
06-Jan-19 14:06 44.446379 -123.093157 199 4248ft 157kts
06-Jan-19 14:07 44.406320 -123.109677 197 3483ft 146kts
06-Jan-19 14:08 44.367764 -123.125008 197 3074ft 129kts
06-Jan-19 14:09 44.333891 -123.141636 201 3075ft 121kts
06-Jan-19 14:10 44.299117 -123.158427 202 2810ft 134kts
06-Jan-19 14:11 44.260877 -123.170731 190 2398ft 143kts
06-Jan-19 14:12 44.224110 -123.182088 198 2219ft 121kts
06-Jan-19 14:13 44.198144 -123.198875 210 1960ft 80kts
06-Jan-19 14:14 44.177370 -123.201671 187 1568ft 77kts
06-Jan-19 14:15 44.154907 -123.202771 178 835ft 77kts
06-Jan-19 14:16 44.133619 -123.202823 178 417ft 70kts
06-Jan-19 14:17 44.126400 -123.203987 266 373ft 0kts

Navigation Log

Ident Type
Flight plan parsing failed, navigation log unavailable